Time;durP1;ratioP1;P1;durP2;ratioP2;P2;SDS_P1;SDS_P2;PMS_P1;PMS_P2;Temp;Humidity;BMP_temperature;BMP_pressure;BME280_temperature;BME280_humidity;BME280_pressure;Samples;Min_cycle;Max_cycle;Signal;HPM_P1;HPM_P2
2021/08/07 00:01:18;;;;;;;4.60;3.08;;;16.70;99.90;;;;;;4992032;28;20210;-52
2021/08/07 00:03:44;;;;;;;3.08;2.75;;;16.70;99.90;;;;;;4992304;28;20242;-53
2021/08/07 00:06:10;;;;;;;3.00;2.70;;;16.70;99.90;;;;;;4992000;28;20325;-53
2021/08/07 00:08:36;;;;;;;2.93;2.50;;;16.80;99.90;;;;;;4991938;28;20478;-52
2021/08/07 00:11:02;;;;;;;2.30;2.10;;;16.70;99.90;;;;;;4992214;28;20526;-52
2021/08/07 00:13:28;;;;;;;2.42;2.22;;;16.60;99.90;;;;;;4991661;28;20423;-52
2021/08/07 00:15:54;;;;;;;2.27;2.07;;;16.30;99.90;;;;;;4991741;28;20230;-52
2021/08/07 00:18:20;;;;;;;4.37;2.60;;;16.30;99.90;;;;;;4991614;28;20470;-52
2021/08/07 00:20:45;;;;;;;2.83;2.40;;;16.50;99.90;;;;;;4997622;28;20187;-53
2021/08/07 00:23:11;;;;;;;2.50;2.30;;;16.50;99.90;;;;;;4996047;28;20201;-52
2021/08/07 00:25:37;;;;;;;2.60;2.40;;;16.50;99.90;;;;;;4991512;28;20264;-52
2021/08/07 00:28:03;;;;;;;2.53;2.33;;;16.50;99.90;;;;;;4991459;28;20226;-52
2021/08/07 00:30:28;;;;;;;2.93;2.40;;;16.50;99.90;;;;;;4994442;28;20186;-51
2021/08/07 00:32:54;;;;;;;2.53;2.33;;;16.50;99.90;;;;;;4995839;28;20446;-51
2021/08/07 00:35:20;;;;;;;3.10;2.90;;;16.60;99.90;;;;;;4991569;28;20227;-52
2021/08/07 00:37:45;;;;;;;2.47;2.23;;;16.50;99.90;;;;;;4995239;28;20570;-51
2021/08/07 00:40:12;;;;;;;3.53;2.33;;;16.40;99.90;;;;;;4991244;28;20203;-51
2021/08/07 00:42:37;;;;;;;3.13;2.13;;;16.60;99.90;;;;;;4990817;28;20657;-52
2021/08/07 00:45:04;;;;;;;2.17;1.97;;;16.60;99.90;;;;;;4991171;28;20303;-52
2021/08/07 00:47:29;;;;;;;4.68;2.53;;;16.30;99.90;;;;;;4991003;28;20546;-52
2021/08/07 00:49:55;;;;;;;4.33;2.37;;;16.80;99.90;;;;;;4999657;28;20270;-52
2021/08/07 00:52:21;;;;;;;3.90;2.40;;;16.60;99.90;;;;;;5009642;28;20660;-51
2021/08/07 00:54:47;;;;;;;2.97;2.67;;;16.70;99.90;;;;;;5003985;28;20183;-52
2021/08/07 00:57:12;;;;;;;2.73;2.33;;;16.20;99.90;;;;;;4995855;28;20573;-52
2021/08/07 00:59:38;;;;;;;3.63;2.43;;;16.60;99.90;;;;;;4990845;28;20183;-52
2021/08/07 01:02:10;;;;;;;3.20;2.70;;;16.60;99.90;;;;;;4990643;28;20192;-52
2021/08/07 01:04:53;;;;;;;4.20;2.35;;;16.50;99.90;;;;;;4990922;28;20179;-53
2021/08/07 01:07:25;;;;;;;4.35;2.58;;;16.50;99.90;;;;;;4990720;28;20197;-50
2021/08/07 01:10:17;;;;;;;3.85;2.20;;;16.60;99.90;;;;;;4990769;28;20191;-53
2021/08/07 01:13:09;;;;;;;4.05;2.58;;;16.70;99.90;;;;;;4990835;28;20601;-52
2021/08/07 01:15:39;;;;;;;2.50;2.30;;;16.50;99.90;;;;;;4996203;28;20245;-52
2021/08/07 01:18:07;;;;;;;2.50;2.30;;;16.50;99.90;;;;;;4998841;28;20254;-53
2021/08/07 01:20:42;;;;;;;3.90;2.70;;;16.80;99.90;;;;;;4990916;28;20201;-52
2021/08/07 01:23:13;;;;;;;4.32;2.65;;;16.70;99.90;;;;;;4990519;28;20246;-51
2021/08/07 01:25:57;;;;;;;3.95;2.30;;;16.60;99.90;;;;;;4990865;28;20286;-52
2021/08/07 01:28:26;;;;;;;2.70;2.50;;;16.60;99.90;;;;;;4993186;28;20210;-51
2021/08/07 01:30:54;;;;;;;6.80;3.03;;;16.80;99.90;;;;;;5004308;28;20256;-51
2021/08/07 01:33:21;;;;;;;2.53;2.33;;;16.30;99.90;;;;;;4991650;28;20179;-51
2021/08/07 01:35:50;;;;;;;2.50;2.30;;;16.40;99.90;;;;;;4990301;28;20206;-51
2021/08/07 01:38:17;;;;;;;3.15;2.42;;;16.60;99.90;;;;;;4990269;28;20535;-52
2021/08/07 01:40:43;;;;;;;4.32;2.83;;;16.80;99.90;;;;;;4990398;28;20195;-52
2021/08/07 01:43:09;;;;;;;2.97;2.20;;;16.80;99.90;;;;;;4989748;28;20191;-51
2021/08/07 01:45:35;;;;;;;2.72;2.53;;;16.70;99.90;;;;;;4994476;28;20222;-52
2021/08/07 01:48:03;;;;;;;3.60;3.10;;;16.50;99.90;;;;;;4991383;28;20676;-50
2021/08/07 01:50:35;;;;;;;4.68;2.67;;;16.60;99.90;;;;;;4994825;28;20518;-50
2021/08/07 01:53:06;;;;;;;3.08;2.47;;;16.80;99.90;;;;;;5004844;28;20191;-50
2021/08/07 01:55:38;;;;;;;3.03;2.83;;;16.70;99.90;;;;;;4993221;28;20309;-50
2021/08/07 01:58:11;;;;;;;5.72;3.03;;;16.70;99.90;;;;;;4990309;28;20193;-52
2021/08/07 02:00:40;;;;;;;3.83;2.80;;;16.50;99.90;;;;;;4990025;28;20215;-51
2021/08/07 02:03:09;;;;;;;3.47;2.40;;;16.50;99.90;;;;;;4998309;28;20678;-52
2021/08/07 02:05:35;;;;;;;3.50;2.60;;;16.40;99.90;;;;;;4995543;28;20235;-53
2021/08/07 02:08:03;;;;;;;3.97;2.65;;;16.50;99.90;;;;;;5002729;28;20222;-53
2021/08/07 02:10:29;;;;;;;4.15;2.80;;;16.40;99.90;;;;;;4993714;28;20180;-52
2021/08/07 02:12:56;;;;;;;4.25;2.83;;;16.40;99.90;;;;;;4993727;28;20183;-51
2021/08/07 02:15:22;;;;;;;5.97;2.70;;;16.50;99.90;;;;;;4993766;28;20212;-52
2021/08/07 02:17:48;;;;;;;3.35;2.75;;;16.60;99.90;;;;;;4993453;28;20550;-52
2021/08/07 02:20:16;;;;;;;2.92;2.65;;;16.70;99.90;;;;;;4998965;28;20199;-53
2021/08/07 02:22:44;;;;;;;5.20;2.95;;;16.60;99.90;;;;;;4993535;28;20451;-52
2021/08/07 02:25:12;;;;;;;3.53;2.78;;;16.60;99.90;;;;;;4993665;28;20192;-52
2021/08/07 02:27:38;;;;;;;2.88;2.67;;;16.50;99.90;;;;;;4993681;28;20206;-52
2021/08/07 02:30:06;;;;;;;2.90;2.70;;;16.70;99.90;;;;;;4993810;28;20826;-52
2021/08/07 02:32:32;;;;;;;6.15;3.03;;;16.90;99.90;;;;;;5000272;28;20461;-52
2021/08/07 02:34:59;;;;;;;3.83;2.65;;;16.80;99.90;;;;;;4993883;28;20186;-53
2021/08/07 02:37:25;;;;;;;4.00;2.78;;;16.50;99.90;;;;;;4994516;28;20184;-52
2021/08/07 02:39:51;;;;;;;4.33;2.70;;;16.60;99.90;;;;;;5006824;28;20241;-52
2021/08/07 02:42:16;;;;;;;4.10;3.00;;;16.90;99.90;;;;;;5010816;28;20482;-52
2021/08/07 02:44:43;;;;;;;3.43;2.30;;;16.70;99.90;;;;;;4999035;28;20176;-53
2021/08/07 02:47:09;;;;;;;6.47;3.20;;;16.80;99.90;;;;;;4998347;28;20335;-52
2021/08/07 02:49:35;;;;;;;8.53;3.23;;;16.70;99.90;;;;;;4995327;28;20211;-52
2021/08/07 02:52:01;;;;;;;4.22;2.80;;;16.70;99.90;;;;;;5007301;28;20620;-53
2021/08/07 02:54:27;;;;;;;3.55;2.45;;;16.80;99.90;;;;;;5001243;28;20199;-51
2021/08/07 02:56:54;;;;;;;3.30;2.93;;;16.90;99.90;;;;;;4996614;28;20204;-51
2021/08/07 02:59:20;;;;;;;3.38;2.20;;;17.00;99.90;;;;;;4998565;28;20274;-51
2021/08/07 03:01:46;;;;;;;5.22;2.78;;;16.50;99.90;;;;;;4992947;28;20184;-52
2021/08/07 03:04:12;;;;;;;3.33;2.78;;;16.70;99.90;;;;;;4996517;28;20188;-50
2021/08/07 03:06:38;;;;;;;5.30;3.10;;;16.60;99.90;;;;;;4993237;28;20207;-52
2021/08/07 03:09:04;;;;;;;5.57;3.05;;;16.50;99.90;;;;;;5003795;28;20565;-51
2021/08/07 03:11:30;;;;;;;3.70;2.60;;;16.70;99.90;;;;;;5003817;28;20199;-52
2021/08/07 03:13:56;;;;;;;2.67;2.47;;;16.80;99.90;;;;;;4994094;28;20259;-52
2021/08/07 03:16:21;;;;;;;3.23;2.63;;;16.60;99.90;;;;;;4998741;28;20203;-52
2021/08/07 03:18:47;;;;;;;3.43;3.00;;;16.50;99.90;;;;;;4993048;28;20587;-51
2021/08/07 03:21:13;;;;;;;2.57;2.30;;;16.60;99.90;;;;;;4992852;28;20199;-50
2021/08/07 03:23:38;;;;;;;4.13;2.20;;;16.30;99.90;;;;;;4993247;28;20195;-51
2021/08/07 03:26:04;;;;;;;3.37;2.90;;;16.30;99.90;;;;;;4996218;28;20358;-51
2021/08/07 03:28:30;;;;;;;3.87;2.60;;;16.50;99.90;;;;;;4996814;28;20214;-50
2021/08/07 03:30:56;;;;;;;3.07;2.77;;;16.20;99.90;;;;;;4998432;28;20652;-51
2021/08/07 03:33:21;;;;;;;5.03;2.90;;;16.20;99.90;;;;;;4998591;28;20681;-50
2021/08/07 03:35:47;;;;;;;3.27;2.70;;;16.10;99.90;;;;;;4992335;28;20231;-51
2021/08/07 03:38:12;;;;;;;3.70;2.77;;;15.90;99.90;;;;;;4992456;28;20195;-52
2021/08/07 03:40:38;;;;;;;3.43;3.23;;;15.90;99.90;;;;;;4992281;28;20195;-51
2021/08/07 03:43:04;;;;;;;2.87;2.57;;;16.00;99.90;;;;;;4992227;28;20176;-52
2021/08/07 03:45:30;;;;;;;5.15;2.97;;;16.10;99.90;;;;;;4999641;28;20255;-52
2021/08/07 03:47:56;;;;;;;3.40;3.07;;;16.30;99.90;;;;;;4992303;28;20242;-51
2021/08/07 03:50:22;;;;;;;4.17;2.53;;;16.30;99.90;;;;;;4992287;28;20435;-50
2021/08/07 03:52:48;;;;;;;3.20;2.50;;;16.00;99.90;;;;;;4992099;28;20180;-50
2021/08/07 03:55:14;;;;;;;3.20;2.90;;;16.00;99.90;;;;;;4992023;28;20210;-51
2021/08/07 03:57:55;;;;;;;3.53;2.72;;;16.20;99.90;;;;;;5005844;28;20209;-50
2021/08/07 04:00:25;;;;;;;5.25;3.40;;;15.90;99.90;;;;;;5010632;28;20200;-50
2021/08/07 04:02:51;;;;;;;2.65;2.45;;;16.00;99.90;;;;;;4992051;28;20176;-50
2021/08/07 04:05:17;;;;;;;4.60;2.60;;;16.20;99.90;;;;;;4991862;28;20195;-51
2021/08/07 04:07:43;;;;;;;3.63;2.30;;;16.20;99.90;;;;;;4991856;28;20185;-50
2021/08/07 04:10:09;;;;;;;3.10;2.83;;;16.10;99.90;;;;;;4991406;28;20485;-50
2021/08/07 04:12:35;;;;;;;5.70;2.80;;;16.10;99.90;;;;;;4991668;28;20200;-51
2021/08/07 04:15:01;;;;;;;3.15;2.85;;;16.00;99.90;;;;;;4991570;28;20176;-50
2021/08/07 04:17:27;;;;;;;2.83;2.40;;;16.10;99.90;;;;;;4994856;28;20476;-50
2021/08/07 04:19:53;;;;;;;2.90;2.60;;;15.90;99.90;;;;;;4992183;28;20465;-51
2021/08/07 04:22:18;;;;;;;3.07;2.70;;;16.00;99.90;;;;;;4991549;28;20438;-51
2021/08/07 04:24:44;;;;;;;2.47;2.27;;;15.90;99.90;;;;;;4994851;28;20558;-50
2021/08/07 04:27:10;;;;;;;4.10;2.47;;;16.00;99.90;;;;;;4990891;28;20211;-50
2021/08/07 04:29:35;;;;;;;5.20;2.80;;;15.80;99.90;;;;;;5000834;28;20635;-50
2021/08/07 04:32:01;;;;;;;6.90;2.30;;;16.10;99.90;;;;;;5002839;28;20594;-50
2021/08/07 04:34:27;;;;;;;2.80;2.10;;;16.00;99.90;;;;;;5000425;28;20182;-51
2021/08/07 04:36:53;;;;;;;2.90;2.60;;;16.30;99.90;;;;;;5002962;28;20289;-51
2021/08/07 04:39:19;;;;;;;2.60;2.40;;;16.00;99.90;;;;;;4997220;28;20195;-50
2021/08/07 04:41:44;;;;;;;3.23;2.40;;;16.20;99.90;;;;;;4991284;28;20530;-50
2021/08/07 04:44:10;;;;;;;3.20;2.33;;;16.20;99.90;;;;;;4991752;28;20469;-50
2021/08/07 04:46:36;;;;;;;2.60;2.40;;;16.10;99.90;;;;;;5010343;28;20269;-52
2021/08/07 04:49:01;;;;;;;4.17;3.30;;;15.90;99.90;;;;;;4997190;28;20212;-51
2021/08/07 04:51:28;;;;;;;4.13;2.37;;;16.00;99.90;;;;;;4990993;28;20179;-49
2021/08/07 04:53:53;;;;;;;2.60;2.38;;;16.30;99.90;;;;;;4991720;28;20438;-50
2021/08/07 04:56:19;;;;;;;4.00;2.57;;;16.30;99.90;;;;;;4990744;28;20585;-50
2021/08/07 04:58:45;;;;;;;2.97;2.70;;;16.30;99.90;;;;;;4990955;28;20197;-51
2021/08/07 05:01:11;;;;;;;3.70;2.50;;;16.50;99.90;;;;;;4990740;28;20238;-51
2021/08/07 05:03:37;;;;;;;4.20;2.30;;;16.50;99.90;;;;;;4990595;28;20188;-51
2021/08/07 05:06:03;;;;;;;2.80;2.20;;;16.70;99.90;;;;;;4990524;28;20211;-51
2021/08/07 05:08:28;;;;;;;2.70;2.50;;;16.60;99.90;;;;;;4990519;28;20463;-50
2021/08/07 05:10:56;;;;;;;4.47;2.10;;;16.70;99.90;;;;;;5000582;28;20183;-50
2021/08/07 05:13:22;;;;;;;2.65;2.45;;;16.60;99.90;;;;;;5004726;28;20429;-51
2021/08/07 05:15:48;;;;;;;3.10;2.70;;;16.60;99.90;;;;;;5010132;28;20611;-51
2021/08/07 05:18:13;;;;;;;2.80;2.50;;;16.90;99.90;;;;;;4997292;28;20449;-50
2021/08/07 05:20:39;;;;;;;3.77;2.37;;;16.80;99.90;;;;;;4990850;28;20191;-50
2021/08/07 05:23:05;;;;;;;2.87;2.50;;;16.80;99.90;;;;;;4990116;28;20378;-50
2021/08/07 05:25:30;;;;;;;3.27;1.93;;;16.80;99.90;;;;;;4990154;28;20289;-50
2021/08/07 05:27:56;;;;;;;4.73;2.10;;;17.00;99.90;;;;;;4991887;28;20466;-51
2021/08/07 05:30:22;;;;;;;2.40;2.20;;;17.30;99.90;;;;;;4991334;28;20179;-50
2021/08/07 05:32:48;;;;;;;4.27;2.50;;;17.10;99.90;;;;;;4995265;28;20183;-49
2021/08/07 05:35:14;;;;;;;3.05;2.50;;;17.20;99.90;;;;;;4990301;28;20338;-50
2021/08/07 05:37:41;;;;;;;4.05;2.20;;;17.40;99.90;;;;;;4990274;28;20187;-50
2021/08/07 05:40:09;;;;;;;2.25;2.05;;;17.30;99.90;;;;;;4990006;28;20195;-50
2021/08/07 05:42:35;;;;;;;1.95;1.80;;;17.30;99.90;;;;;;4990023;28;20183;-50
2021/08/07 05:45:01;;;;;;;3.00;2.70;;;17.50;99.90;;;;;;4998715;28;20249;-50
2021/08/07 05:47:26;;;;;;;2.50;2.30;;;17.40;99.90;;;;;;4989945;28;20195;-50
2021/08/07 05:49:53;;;;;;;2.78;2.00;;;17.50;99.90;;;;;;4990303;28;20253;-51
2021/08/07 05:52:19;;;;;;;3.60;2.63;;;17.50;99.90;;;;;;4991219;28;20190;-50
2021/08/07 05:54:45;;;;;;;2.50;2.20;;;17.70;99.90;;;;;;4989915;28;20179;-50
2021/08/07 05:57:10;;;;;;;2.10;1.90;;;17.60;99.90;;;;;;4989941;28;20203;-51
2021/08/07 05:59:36;;;;;;;2.83;2.30;;;17.80;99.90;;;;;;4990001;28;20195;-50
2021/08/07 06:02:02;;;;;;;2.90;2.20;;;18.00;99.90;;;;;;4991480;28;20278;-50
2021/08/07 06:04:29;;;;;;;2.53;1.95;;;18.00;99.90;;;;;;4990249;28;20186;-51
2021/08/07 06:06:54;;;;;;;4.03;2.03;;;18.20;99.90;;;;;;4990180;28;20265;-51
2021/08/07 06:09:20;;;;;;;2.13;2.03;;;18.30;99.90;;;;;;4989935;28;20207;-50
2021/08/07 06:11:45;;;;;;;2.90;2.20;;;18.50;99.90;;;;;;5001659;28;20190;-51
2021/08/07 06:14:11;;;;;;;2.67;2.20;;;18.70;99.90;;;;;;5003229;28;20197;-51
2021/08/07 06:16:37;;;;;;;2.70;2.30;;;18.70;99.90;;;;;;4999988;28;20203;-51
2021/08/07 06:19:03;;;;;;;6.90;2.47;;;18.90;99.90;;;;;;4990751;28;20202;-50
2021/08/07 06:21:29;;;;;;;2.40;2.20;;;19.00;99.90;;;;;;4990120;28;20194;-50
2021/08/07 06:23:55;;;;;;;4.23;2.50;;;19.20;99.90;;;;;;4989477;28;20491;-51
2021/08/07 06:26:21;;;;;;;5.20;2.13;;;19.30;99.90;;;;;;4989909;28;20458;-51
2021/08/07 06:28:46;;;;;;;2.20;1.90;;;19.50;99.90;;;;;;4989798;28;20274;-51
2021/08/07 06:31:12;;;;;;;2.43;2.23;;;19.50;99.90;;;;;;4997088;28;20430;-51
2021/08/07 06:33:38;;;;;;;2.30;2.10;;;19.50;99.90;;;;;;4989722;28;20183;-51
2021/08/07 06:36:04;;;;;;;2.83;2.30;;;19.60;99.90;;;;;;4990485;28;20599;-50
2021/08/07 06:38:30;;;;;;;4.05;2.75;;;19.80;99.90;;;;;;4989590;28;20218;-51
2021/08/07 06:40:56;;;;;;;2.17;1.97;;;20.00;99.90;;;;;;4989822;28;20570;-50
2021/08/07 06:43:22;;;;;;;2.23;2.00;;;20.20;99.90;;;;;;4989703;28;20202;-51
2021/08/07 06:45:48;;;;;;;2.03;1.90;;;20.20;99.90;;;;;;4989772;28;20816;-51
2021/08/07 06:48:14;;;;;;;1.67;1.33;;;20.50;99.90;;;;;;4989465;28;20219;-51
2021/08/07 06:50:39;;;;;;;1.73;1.63;;;20.60;99.90;;;;;;4989974;28;20176;-51
2021/08/07 06:53:05;;;;;;;2.33;1.70;;;20.90;99.90;;;;;;5002244;28;20238;-51
2021/08/07 06:55:31;;;;;;;1.60;1.50;;;21.10;99.90;;;;;;4996821;28;20198;-51
2021/08/07 06:57:57;;;;;;;5.40;2.37;;;21.10;98.80;;;;;;4999051;28;20429;-50
2021/08/07 07:00:23;;;;;;;4.20;1.70;;;21.30;99.10;;;;;;5011209;28;20676;-49
2021/08/07 07:02:48;;;;;;;3.70;1.67;;;21.50;98.40;;;;;;5001426;28;20179;-48
2021/08/07 07:05:14;;;;;;;1.90;1.70;;;21.50;98.20;;;;;;4999191;28;20206;-48
2021/08/07 07:07:40;;;;;;;2.50;1.70;;;21.90;97.50;;;;;;5008409;28;20269;-48
2021/08/07 07:10:10;;;;;;;2.10;1.43;;;22.50;96.60;;;;;;5002704;28;20258;-48
2021/08/07 07:12:36;;;;;;;1.70;1.60;;;23.40;95.00;;;;;;4992931;28;20180;-48
2021/08/07 07:15:03;;;;;;;1.40;1.13;;;25.00;92.50;;;;;;5009088;28;20433;-48
2021/08/07 07:17:29;;;;;;;2.07;1.30;;;26.70;88.80;;;;;;4994266;28;20459;-48
2021/08/07 07:19:56;;;;;;;4.13;2.03;;;28.50;82.40;;;;;;4992761;28;20438;-49
2021/08/07 07:22:22;;;;;;;2.70;1.67;;;29.70;75.40;;;;;;5003027;28;20191;-49
2021/08/07 07:24:47;;;;;;;1.87;1.43;;;29.70;73.30;;;;;;4993529;28;20450;-48
2021/08/07 07:27:13;;;;;;;1.93;1.73;;;29.40;72.20;;;;;;5002565;28;20215;-48
2021/08/07 07:29:40;;;;;;;3.70;1.60;;;29.00;72.70;;;;;;5000243;28;20677;-49
2021/08/07 07:32:08;;;;;;;1.80;1.20;;;28.30;71.30;;;;;;4996864;28;20649;-48
2021/08/07 07:34:37;;;;;;;2.77;1.40;;;27.70;74.20;;;;;;5005266;28;20447;-49
2021/08/07 07:37:04;;;;;;;1.97;1.37;;;26.90;76.30;;;;;;4997776;28;20463;-48
2021/08/07 07:39:30;;;;;;;3.23;1.60;;;26.10;79.80;;;;;;5000936;28;20768;-48
2021/08/07 07:41:56;;;;;;;1.80;1.70;;;25.70;81.30;;;;;;5003218;28;20591;-48
2021/08/07 07:44:21;;;;;;;1.60;1.50;;;25.30;82.70;;;;;;5001080;28;20523;-47
2021/08/07 07:46:47;;;;;;;1.70;1.60;;;25.20;84.30;;;;;;4992880;28;20492;-48
2021/08/07 07:49:13;;;;;;;3.87;2.37;;;25.90;82.50;;;;;;4992466;28;20219;-49
2021/08/07 07:51:39;;;;;;;3.50;1.90;;;26.70;80.80;;;;;;5006213;28;20198;-48
2021/08/07 07:54:05;;;;;;;1.73;1.50;;;27.50;78.40;;;;;;5004707;28;20951;-49
2021/08/07 07:56:31;;;;;;;2.23;1.50;;;28.10;75.20;;;;;;4995854;28;20245;-48
2021/08/07 07:58:56;;;;;;;4.20;1.90;;;27.50;76.10;;;;;;4990532;28;20286;-48
2021/08/07 08:01:22;;;;;;;2.83;1.77;;;27.20;77.40;;;;;;5001845;28;20215;-48
2021/08/07 08:03:48;;;;;;;1.90;1.50;;;26.90;78.10;;;;;;4991586;28;20522;-49
2021/08/07 08:06:14;;;;;;;1.70;1.60;;;26.80;79.20;;;;;;4998444;28;20692;-48
2021/08/07 08:08:40;;;;;;;2.57;1.50;;;26.80;79.00;;;;;;4991522;28;20209;-49
2021/08/07 08:11:06;;;;;;;1.50;1.40;;;27.30;78.40;;;;;;4992185;28;20652;-49
2021/08/07 08:13:31;;;;;;;2.20;1.40;;;27.50;77.10;;;;;;4991885;28;20493;-48
2021/08/07 08:15:57;;;;;;;2.40;1.27;;;27.60;76.20;;;;;;5009507;28;20478;-49
2021/08/07 08:18:23;;;;;;;2.87;1.70;;;27.40;75.00;;;;;;4991744;28;20288;-48
2021/08/07 08:20:49;;;;;;;2.77;1.80;;;27.30;74.50;;;;;;4991840;28;20262;-48
2021/08/07 08:23:15;;;;;;;2.60;1.37;;;27.00;75.50;;;;;;4996852;28;20961;-48
2021/08/07 08:25:41;;;;;;;1.60;1.50;;;26.60;75.80;;;;;;4991693;28;20470;-48
2021/08/07 08:28:07;;;;;;;1.47;1.20;;;26.10;79.00;;;;;;4994938;28;20465;-48
2021/08/07 08:30:34;;;;;;;2.03;1.40;;;25.80;80.00;;;;;;4994107;28;20711;-48
2021/08/07 08:33:00;;;;;;;1.70;1.57;;;25.70;81.20;;;;;;4996772;28;20457;-48
2021/08/07 08:35:26;;;;;;;1.90;1.47;;;25.80;82.20;;;;;;5003855;28;20462;-49
2021/08/07 08:37:52;;;;;;;1.60;1.50;;;25.80;80.50;;;;;;4999798;28;20445;-48
2021/08/07 08:40:17;;;;;;;1.67;1.57;;;25.70;79.10;;;;;;4997812;28;20185;-48
2021/08/07 08:42:44;;;;;;;2.10;1.23;;;25.40;80.40;;;;;;4991860;28;20179;-48
2021/08/07 08:45:11;;;;;;;2.50;1.30;;;25.00;81.40;;;;;;4991096;28;21009;-49
2021/08/07 08:47:40;;;;;;;1.40;1.20;;;24.90;82.80;;;;;;4995135;28;20469;-49
2021/08/07 08:50:06;;;;;;;1.87;1.47;;;24.80;82.20;;;;;;4991852;28;20447;-49
2021/08/07 08:52:36;;;;;;;3.43;1.90;;;24.70;82.80;;;;;;4999297;28;20968;-49
2021/08/07 08:55:02;;;;;;;3.20;1.70;;;24.60;83.40;;;;;;5006679;28;20469;-49
2021/08/07 08:57:28;;;;;;;3.97;1.80;;;24.30;84.50;;;;;;4996664;28;20437;-49
2021/08/07 08:59:55;;;;;;;3.63;1.60;;;23.80;86.70;;;;;;5004868;28;20451;-50
2021/08/07 09:02:20;;;;;;;2.23;1.60;;;23.90;86.20;;;;;;4995467;28;20187;-50
2021/08/07 09:04:47;;;;;;;2.17;1.30;;;23.90;85.00;;;;;;5002203;28;20873;-48
2021/08/07 09:07:14;;;;;;;1.67;1.57;;;23.90;85.90;;;;;;5002178;28;20215;-49
2021/08/07 09:09:42;;;;;;;2.60;1.70;;;23.80;86.20;;;;;;4988813;28;21002;-49
2021/08/07 09:12:09;;;;;;;3.03;1.70;;;23.70;88.60;;;;;;4991923;28;20469;-49
2021/08/07 09:14:42;;;;;;;2.30;1.90;;;23.50;90.00;;;;;;4995453;28;20457;-48
2021/08/07 09:17:15;;;;;;;2.23;1.50;;;23.40;90.00;;;;;;5000910;28;20450;-49
2021/08/07 09:19:40;;;;;;;4.77;1.90;;;23.60;90.20;;;;;;4991702;28;20446;-49
2021/08/07 09:22:07;;;;;;;3.13;2.87;;;23.50;90.60;;;;;;5001027;28;20453;-50
2021/08/07 09:24:33;;;;;;;2.03;1.40;;;23.30;91.20;;;;;;5002718;28;20187;-49
2021/08/07 09:27:04;;;;;;;2.33;1.77;;;23.50;89.80;;;;;;5007603;28;20868;-49
2021/08/07 09:29:40;;;;;;;3.17;1.93;;;23.80;89.60;;;;;;5006379;28;20473;-49
2021/08/07 09:32:06;;;;;;;3.00;1.73;;;24.10;88.00;;;;;;4995617;28;20438;-50
2021/08/07 09:34:32;;;;;;;2.57;1.70;;;24.30;88.20;;;;;;4990990;28;20437;-50
2021/08/07 09:36:58;;;;;;;1.97;1.80;;;24.20;89.60;;;;;;4967982;28;20555;-49
2021/08/07 09:39:37;;;;;;;4.77;1.97;;;24.10;88.90;;;;;;5003907;28;20329;-49
2021/08/07 09:42:04;;;;;;;2.70;2.30;;;24.20;89.60;;;;;;4997303;28;20717;-49
2021/08/07 09:44:30;;;;;;;2.77;2.20;;;24.10;88.70;;;;;;5004272;28;20437;-50
2021/08/07 09:47:10;;;;;;;5.73;2.17;;;24.00;90.00;;;;;;4995198;28;20991;-51
2021/08/07 09:49:38;;;;;;;2.03;1.70;;;24.00;87.80;;;;;;5002913;28;20990;-49
2021/08/07 09:52:05;;;;;;;2.70;1.60;;;24.10;86.00;;;;;;5005990;28;20440;-50
2021/08/07 09:54:38;;;;;;;1.83;1.60;;;23.90;85.30;;;;;;4996599;28;20433;-47
2021/08/07 09:57:05;;;;;;;2.90;2.20;;;23.80;86.50;;;;;;5010113;28;20484;-50
2021/08/07 09:59:30;;;;;;;1.83;1.57;;;23.70;87.80;;;;;;5001768;28;20452;-49
2021/08/07 10:01:57;;;;;;;2.90;1.80;;;23.60;89.30;;;;;;5004647;28;20882;-49
2021/08/07 10:04:24;;;;;;;2.20;2.00;;;23.60;90.70;;;;;;4998505;28;20798;-50
2021/08/07 10:07:04;;;;;;;3.33;1.93;;;23.40;92.10;;;;;;4990630;28;20513;-49
2021/08/07 10:09:35;;;;;;;2.97;2.10;;;23.20;93.60;;;;;;4997738;28;20864;-49
2021/08/07 10:12:02;;;;;;;3.00;1.70;;;22.70;95.80;;;;;;4991570;28;20477;-49
2021/08/07 10:14:28;;;;;;;2.75;2.05;;;22.30;97.40;;;;;;4990260;28;20497;-50
2021/08/07 10:16:54;;;;;;;2.03;1.80;;;22.10;96.90;;;;;;4992562;28;20611;-50
2021/08/07 10:19:20;;;;;;;4.50;1.92;;;22.10;97.70;;;;;;5008058;28;20186;-48
2021/08/07 10:21:49;;;;;;;2.10;1.90;;;22.00;98.80;;;;;;5002378;28;20187;-48
2021/08/07 10:24:16;;;;;;;3.85;2.10;;;21.80;99.90;;;;;;5001437;28;20802;-49
2021/08/07 10:26:45;;;;;;;2.95;2.50;;;21.60;99.90;;;;;;4997907;28;20211;-49
2021/08/07 10:29:13;;;;;;;2.72;2.47;;;21.30;99.90;;;;;;4997901;28;20306;-48
2021/08/07 10:31:39;;;;;;;2.45;2.10;;;21.30;99.90;;;;;;4997258;28;20183;-49
2021/08/07 10:34:08;;;;;;;3.22;2.28;;;21.10;99.90;;;;;;4994124;28;20672;-49
2021/08/07 10:36:35;;;;;;;2.10;1.90;;;21.00;99.90;;;;;;5010319;28;20561;-49
2021/08/07 10:39:02;;;;;;;2.90;2.17;;;20.70;99.90;;;;;;5001361;28;20187;-49
2021/08/07 10:41:31;;;;;;;3.03;2.15;;;20.60;99.90;;;;;;4994365;28;20199;-49
2021/08/07 10:43:59;;;;;;;2.47;2.25;;;20.50;99.90;;;;;;5005663;28;20191;-50
2021/08/07 10:46:25;;;;;;;2.83;2.17;;;20.40;99.90;;;;;;5002920;28;20210;-49
2021/08/07 10:48:52;;;;;;;2.90;2.58;;;20.30;99.90;;;;;;5001822;28;20540;-51
2021/08/07 10:51:24;;;;;;;2.83;2.55;;;20.30;99.90;;;;;;5004723;28;20271;-51
2021/08/07 10:53:57;;;;;;;2.58;2.30;;;20.10;99.90;;;;;;5007119;28;20188;-50
2021/08/07 10:56:29;;;;;;;5.25;3.33;;;20.10;99.90;;;;;;5003186;28;20261;-50
2021/08/07 10:59:18;;;;;;;3.28;2.95;;;20.10;99.90;;;;;;4998999;28;20201;-49
2021/08/07 11:01:48;;;;;;;3.05;2.75;;;19.90;99.90;;;;;;5005704;28;20187;-49
2021/08/07 11:04:18;;;;;;;4.07;3.40;;;20.00;99.90;;;;;;4996410;28;20190;-49
2021/08/07 11:06:45;;;;;;;4.25;2.40;;;20.00;99.90;;;;;;4998104;28;20199;-48
2021/08/07 11:09:32;;;;;;;3.03;2.58;;;20.00;99.90;;;;;;4998125;28;20243;-49
2021/08/07 11:12:06;;;;;;;3.70;2.70;;;19.90;99.90;;;;;;5000702;28;20178;-49
2021/08/07 11:14:35;;;;;;;2.35;2.15;;;20.00;99.90;;;;;;5004023;28;20596;-48
2021/08/07 11:17:04;;;;;;;2.72;2.20;;;20.00;99.90;;;;;;4998236;28;20281;-48
2021/08/07 11:19:45;;;;;;;2.80;2.47;;;20.10;99.90;;;;;;5004010;28;20187;-50
2021/08/07 11:22:11;;;;;;;4.22;2.85;;;20.00;99.90;;;;;;4998917;28;20206;-51
2021/08/07 11:24:56;;;;;;;5.43;3.30;;;20.00;99.90;;;;;;5003021;28;20637;-50
2021/08/07 11:28:03;;;;;;;3.33;2.70;;;20.00;99.90;;;;;;4995478;28;20966;-50
2021/08/07 11:30:29;;;;;;;4.28;2.67;;;20.00;99.90;;;;;;4997823;28;20180;-50
2021/08/07 11:33:01;;;;;;;4.33;3.10;;;20.00;99.90;;;;;;5005762;28;20191;-50
2021/08/07 11:38:48;;;;;;;3.45;3.15;;;19.90;99.90;;;;;;5001049;28;20183;-51
2021/08/07 11:41:06;;;;;;;4.55;3.13;;;19.60;99.90;;;;;;5007076;28;20191;-50
2021/08/07 11:43:43;;;;;;;3.80;2.50;;;19.90;99.90;;;;;;4995986;28;20267;-52
2021/08/07 11:46:14;;;;;;;3.13;2.85;;;19.80;99.90;;;;;;5000917;28;20313;-51
2021/08/07 11:48:44;;;;;;;4.07;3.35;;;19.80;99.90;;;;;;4995378;28;20221;-52
2021/08/07 11:51:14;;;;;;;3.28;2.97;;;19.70;99.90;;;;;;4998981;28;20187;-53
2021/08/07 11:53:46;;;;;;;3.75;3.45;;;19.80;99.90;;;;;;5000194;28;20562;-52
2021/08/07 11:56:20;;;;;;;3.50;3.20;;;19.70;99.90;;;;;;5003763;28;20206;-53
2021/08/07 11:58:49;;;;;;;3.47;3.10;;;19.70;99.90;;;;;;5003666;28;20190;-52
2021/08/07 12:01:16;;;;;;;3.67;3.38;;;19.70;99.90;;;;;;4994427;28;20283;-53
2021/08/07 12:03:42;;;;;;;3.55;3.10;;;19.90;99.90;;;;;;5002308;28;20704;-52
2021/08/07 12:06:08;;;;;;;3.63;3.30;;;20.00;99.90;;;;;;4995095;28;20209;-53
2021/08/07 12:08:34;;;;;;;5.88;3.47;;;20.00;99.90;;;;;;4997735;28;20211;-52
2021/08/07 12:11:03;;;;;;;2.92;2.58;;;20.00;99.90;;;;;;4994190;28;20261;-53
2021/08/07 12:13:34;;;;;;;3.60;2.42;;;20.10;99.90;;;;;;5005756;28;20179;-52
2021/08/07 12:16:06;;;;;;;3.30;2.55;;;20.10;99.90;;;;;;5003028;28;20260;-53
2021/08/07 12:18:41;;;;;;;3.83;2.60;;;20.20;99.90;;;;;;5004472;28;20195;-53
2021/08/07 12:21:07;;;;;;;3.60;2.83;;;20.20;99.90;;;;;;4998484;28;20182;-52
2021/08/07 12:24:01;;;;;;;3.88;2.97;;;20.20;99.90;;;;;;5003952;28;20179;-51
2021/08/07 12:26:28;;;;;;;3.55;2.53;;;20.30;99.90;;;;;;4998651;28;20643;-53
2021/08/07 12:29:05;;;;;;;2.55;2.35;;;20.30;99.90;;;;;;5003099;28;20673;-51
2021/08/07 12:31:42;;;;;;;3.20;2.38;;;20.30;99.90;;;;;;5007580;28;20185;-52
2021/08/07 12:34:17;;;;;;;2.92;2.50;;;20.20;99.90;;;;;;4997868;28;20842;-51
2021/08/07 12:37:19;;;;;;;3.22;2.00;;;20.20;99.90;;;;;;5000497;28;20227;-51
2021/08/07 12:39:53;;;;;;;3.33;2.67;;;20.10;99.90;;;;;;5002773;28;20297;-50
2021/08/07 12:42:21;;;;;;;3.13;2.00;;;20.10;99.90;;;;;;5000269;28;20183;-50
2021/08/07 12:45:19;;;;;;;5.10;2.65;;;20.10;99.90;;;;;;5003832;28;20191;-50
2021/08/07 12:47:45;;;;;;;2.47;2.10;;;20.10;99.90;;;;;;4999814;28;20203;-50
2021/08/07 12:50:16;;;;;;;2.57;2.37;;;20.10;99.90;;;;;;4999395;28;20209;-51
2021/08/07 12:52:59;;;;;;;2.42;2.13;;;20.20;99.90;;;;;;5005308;28;20175;-50
2021/08/07 12:55:26;;;;;;;2.60;2.40;;;20.10;99.90;;;;;;4998531;28;20195;-50